createdAt,value
2022-08-11T00:00:38.224Z,5.00
2022-08-11T00:01:38.185Z,4.80
2022-08-11T00:02:38.508Z,2.80
2022-08-11T00:03:42.331Z,12.10
2022-08-11T00:04:38.170Z,5.50
2022-08-11T00:05:38.194Z,3.40
2022-08-11T00:06:38.136Z,2.60
2022-08-11T00:07:38.112Z,3.70
2022-08-11T00:08:38.118Z,3.60
2022-08-11T00:09:39.288Z,4.60
2022-08-11T00:10:38.056Z,3.60
2022-08-11T00:11:38.147Z,9.60
2022-08-11T00:12:38.214Z,5.80
2022-08-11T00:13:38.022Z,2.90
2022-08-11T00:14:38.112Z,3.80
2022-08-11T00:15:37.993Z,3.80
2022-08-11T00:16:38.034Z,3.50
2022-08-11T00:17:37.995Z,3.80
2022-08-11T00:18:37.974Z,3.50
2022-08-11T00:20:12.401Z,4.10
2022-08-11T00:20:37.970Z,5.50
2022-08-11T00:22:03.036Z,2.80
2022-08-11T00:22:38.150Z,4.40
2022-08-11T00:23:37.944Z,4.10
2022-08-11T00:24:54.875Z,6.10
2022-08-11T00:25:37.884Z,1.80
2022-08-11T00:26:37.976Z,1.30
2022-08-11T00:27:37.890Z,2.90
2022-08-11T00:28:37.898Z,2.10
2022-08-11T00:29:38.031Z,3.70
2022-08-11T00:30:37.846Z,3.40
2022-08-11T00:31:37.816Z,4.60
2022-08-11T00:32:37.947Z,2.10
2022-08-11T00:33:41.145Z,1.80
2022-08-11T00:34:37.794Z,6.70
2022-08-11T00:35:54.282Z,4.70
2022-08-11T00:36:37.745Z,1.20
2022-08-11T00:37:37.727Z,6.60
2022-08-11T00:38:37.702Z,4.10
2022-08-11T00:39:37.735Z,3.20
2022-08-11T00:40:37.706Z,5.00
2022-08-11T00:41:37.705Z,4.70
2022-08-11T00:42:37.902Z,2.40
2022-08-11T00:43:37.685Z,3.90
2022-08-11T00:44:37.661Z,2.70
2022-08-11T00:45:37.610Z,4.50
2022-08-11T00:46:37.681Z,3.50
2022-08-11T00:47:37.610Z,2.60
2022-08-11T00:48:37.605Z,4.00
2022-08-11T00:49:37.596Z,3.60
2022-08-11T00:50:37.576Z,4.30
2022-08-11T00:52:04.550Z,4.00
2022-08-11T00:52:37.660Z,5.10
2022-08-11T00:53:37.519Z,2.60
2022-08-11T00:54:37.528Z,5.00
2022-08-11T00:55:37.508Z,1.50
2022-08-11T00:56:37.510Z,3.60
2022-08-11T00:57:38.610Z,4.00
2022-08-11T00:58:37.483Z,3.00
2022-08-11T00:59:37.449Z,4.10
2022-08-11T01:00:37.488Z,3.30
2022-08-11T01:01:37.410Z,4.10
2022-08-11T01:02:37.491Z,3.20
2022-08-11T01:03:37.432Z,2.10
2022-08-11T01:04:37.408Z,4.00
2022-08-11T01:05:37.391Z,2.90
2022-08-11T01:06:37.394Z,2.70
2022-08-11T01:07:59.080Z,5.00
2022-08-11T01:08:37.449Z,3.70
2022-08-11T01:09:37.336Z,4.20
2022-08-11T01:10:37.323Z,3.10
2022-08-11T01:11:37.290Z,3.10
2022-08-11T01:12:37.455Z,4.90
2022-08-11T01:13:37.303Z,6.10
2022-08-11T01:14:37.272Z,3.40
2022-08-11T01:15:37.234Z,3.70
2022-08-11T01:16:37.249Z,5.80
2022-08-11T01:17:37.230Z,4.30
2022-08-11T01:18:37.243Z,3.10
2022-08-11T01:20:38.502Z,2.30
2022-08-11T01:20:52.820Z,4.70
2022-08-11T01:21:37.169Z,1.80
2022-08-11T01:22:37.311Z,1.60
2022-08-11T01:23:37.212Z,3.30
2022-08-11T01:24:37.124Z,3.50
2022-08-11T01:25:57.543Z,3.40
2022-08-11T01:26:37.110Z,4.40
2022-08-11T01:27:37.077Z,4.40
2022-08-11T01:28:37.067Z,2.20
2022-08-11T01:29:37.073Z,1.90
2022-08-11T01:30:37.057Z,4.40
2022-08-11T01:31:37.052Z,7.00
2022-08-11T01:32:37.234Z,3.50
2022-08-11T01:33:37.031Z,3.10
2022-08-11T01:34:36.991Z,2.10
2022-08-11T01:35:37.378Z,2.10
2022-08-11T01:36:36.955Z,1.50
2022-08-11T01:37:36.945Z,4.30
2022-08-11T01:38:36.974Z,2.50
2022-08-11T01:39:37.043Z,4.40
2022-08-11T01:40:36.915Z,2.40
2022-08-11T01:41:36.890Z,2.90
2022-08-11T01:42:37.156Z,5.10
2022-08-11T01:43:36.896Z,4.90
2022-08-11T01:44:36.858Z,3.90
2022-08-11T01:45:36.856Z,1.70
2022-08-11T01:46:36.856Z,5.00
2022-08-11T01:47:36.868Z,4.30
2022-08-11T01:48:36.853Z,4.70
2022-08-11T01:50:08.589Z,2.60
2022-08-11T01:50:36.802Z,3.40
2022-08-11T01:51:36.749Z,3.70
2022-08-11T01:52:36.782Z,3.20
2022-08-11T01:53:36.743Z,2.80
2022-08-11T01:54:36.746Z,4.10
2022-08-11T01:55:36.741Z,4.00
2022-08-11T01:56:36.709Z,4.50
2022-08-11T01:57:36.677Z,4.90
2022-08-11T01:58:44.245Z,3.80
2022-08-11T01:59:36.672Z,9.60
2022-08-11T02:00:36.725Z,5.30
2022-08-11T02:01:36.631Z,4.70
2022-08-11T02:02:36.855Z,4.10
2022-08-11T02:03:36.585Z,4.30
2022-08-11T02:04:36.651Z,8.80
2022-08-11T02:05:36.589Z,3.00
2022-08-11T02:06:36.570Z,12.40
2022-08-11T02:07:36.547Z,2.90
2022-08-11T02:08:36.560Z,4.60
2022-08-11T02:09:36.524Z,4.10
2022-08-11T02:10:38.240Z,3.80
2022-08-11T02:11:37.334Z,2.30
2022-08-11T02:12:36.960Z,3.20
2022-08-11T02:13:36.988Z,3.50
2022-08-11T02:14:36.525Z,2.70
2022-08-11T02:15:36.448Z,4.50
2022-08-11T02:16:36.461Z,4.00
2022-08-11T02:17:36.422Z,6.40
2022-08-11T02:18:36.398Z,5.50
2022-08-11T02:19:36.399Z,4.30
2022-08-11T02:20:36.380Z,3.70
2022-08-11T02:21:36.372Z,3.30
2022-08-11T02:22:36.709Z,5.10
2022-08-11T02:24:03.950Z,2.50
2022-08-11T02:24:36.337Z,3.50
2022-08-11T02:25:36.325Z,2.80
2022-08-11T02:26:36.295Z,3.30
2022-08-11T02:27:36.318Z,1.80
2022-08-11T02:28:40.206Z,2.70
2022-08-11T02:29:36.278Z,3.70
2022-08-11T02:30:36.253Z,3.20
2022-08-11T02:32:28.577Z,4.00
2022-08-11T02:32:36.368Z,2.10
2022-08-11T02:33:36.451Z,2.70
2022-08-11T02:34:36.208Z,4.70
2022-08-11T02:35:36.175Z,5.30
2022-08-11T02:36:36.162Z,5.60
2022-08-11T02:37:36.146Z,3.90
2022-08-11T02:38:36.140Z,5.10
2022-08-11T02:39:36.175Z,5.10
2022-08-11T02:40:36.137Z,7.10
2022-08-11T02:41:36.133Z,4.70
2022-08-11T02:42:36.419Z,1.90
2022-08-11T02:43:36.073Z,6.50
2022-08-11T02:44:36.053Z,3.50
2022-08-11T02:45:36.039Z,4.30
2022-08-11T02:46:36.052Z,7.10
2022-08-11T02:47:35.997Z,3.30
2022-08-11T02:48:36.040Z,1.90
2022-08-11T02:49:36.022Z,3.20
2022-08-11T02:50:35.974Z,3.90
2022-08-11T02:51:35.941Z,4.30
2022-08-11T02:52:36.050Z,2.50
2022-08-11T02:53:35.916Z,4.30
2022-08-11T02:54:35.917Z,4.70
2022-08-11T02:55:44.456Z,4.10
2022-08-11T02:56:35.912Z,2.50
2022-08-11T02:57:35.870Z,2.10
2022-08-11T02:58:35.855Z,4.80
2022-08-11T02:59:35.864Z,3.60
2022-08-11T03:00:35.871Z,3.10
2022-08-11T03:01:35.851Z,3.00
2022-08-11T03:02:35.853Z,2.50
2022-08-11T03:03:35.806Z,2.40
2022-08-11T03:04:37.484Z,5.30
2022-08-11T03:05:35.768Z,3.70
2022-08-11T03:06:35.770Z,3.90
2022-08-11T03:07:35.753Z,4.50
2022-08-11T03:08:35.747Z,4.60
2022-08-11T03:09:35.750Z,7.80
2022-08-11T03:10:35.728Z,2.60
2022-08-11T03:11:35.693Z,3.40
2022-08-11T03:12:35.719Z,4.90
2022-08-11T03:13:35.651Z,4.80
2022-08-11T03:14:35.645Z,5.20
2022-08-11T03:15:35.692Z,3.30
2022-08-11T03:16:35.657Z,2.80
2022-08-11T03:17:35.589Z,2.80
2022-08-11T03:18:35.613Z,3.60
2022-08-11T03:19:35.579Z,5.00
2022-08-11T03:20:38.311Z,5.90
2022-08-11T03:22:01.605Z,4.10
2022-08-11T03:22:35.574Z,4.40
2022-08-11T03:23:35.517Z,3.40
2022-08-11T03:24:35.507Z,4.70
2022-08-11T03:25:35.493Z,6.40
2022-08-11T03:26:35.498Z,4.10
2022-08-11T03:27:35.481Z,1.80
2022-08-11T03:28:35.453Z,3.50
2022-08-11T03:29:35.451Z,2.10
2022-08-11T03:30:35.451Z,6.30
2022-08-11T03:31:35.449Z,2.80
2022-08-11T03:32:35.417Z,3.00
2022-08-11T03:33:35.408Z,3.90
2022-08-11T03:34:35.382Z,8.60
2022-08-11T03:35:35.383Z,3.50
2022-08-11T03:36:55.712Z,7.40
2022-08-11T03:37:35.372Z,6.80
2022-08-11T03:38:35.329Z,6.40
2022-08-11T03:39:35.397Z,3.00
2022-08-11T03:40:35.309Z,4.00
2022-08-11T03:42:02.907Z,3.40
2022-08-11T03:42:35.282Z,3.50
2022-08-11T03:43:35.295Z,10.00
2022-08-11T03:44:35.241Z,4.70
2022-08-11T03:45:40.307Z,2.80
2022-08-11T03:46:35.297Z,4.60
2022-08-11T03:47:35.214Z,2.90
2022-08-11T03:48:35.226Z,3.80
2022-08-11T03:49:35.204Z,2.80
2022-08-11T03:50:35.164Z,6.10
2022-08-11T03:51:44.823Z,8.90
2022-08-11T03:52:35.147Z,2.60
2022-08-11T03:53:35.130Z,8.50
2022-08-11T03:54:35.134Z,3.50
2022-08-11T03:55:35.214Z,6.90
2022-08-11T03:56:35.110Z,5.80
2022-08-11T03:57:35.109Z,6.50
2022-08-11T03:58:39.567Z,6.90
2022-08-11T03:59:35.096Z,3.20
2022-08-11T04:00:35.060Z,5.00
2022-08-11T04:01:35.095Z,5.10
2022-08-11T04:02:35.022Z,3.10
2022-08-11T04:03:35.004Z,3.90
2022-08-11T04:04:34.997Z,7.80
2022-08-11T04:05:34.977Z,5.00
2022-08-11T04:06:34.978Z,4.60
2022-08-11T04:07:34.957Z,4.50
2022-08-11T04:08:34.927Z,5.50
2022-08-11T04:09:34.904Z,5.40
2022-08-11T04:10:34.913Z,8.00
2022-08-11T04:11:34.897Z,4.50
2022-08-11T04:12:36.411Z,4.30
2022-08-11T04:13:34.874Z,4.00
2022-08-11T04:14:34.860Z,5.50
2022-08-11T04:15:34.845Z,4.70
2022-08-11T04:16:34.841Z,7.30
2022-08-11T04:17:34.842Z,4.20
2022-08-11T04:18:34.813Z,5.60
2022-08-11T04:19:34.794Z,4.40
2022-08-11T04:20:34.774Z,8.20
2022-08-11T04:21:34.761Z,6.80
2022-08-11T04:22:34.757Z,8.20
2022-08-11T04:24:35.360Z,3.90
2022-08-11T04:24:48.377Z,6.20
2022-08-11T04:25:34.699Z,8.40
2022-08-11T04:26:34.696Z,5.70
2022-08-11T04:27:37.406Z,6.50
2022-08-11T04:28:34.676Z,5.30
2022-08-11T04:30:02.121Z,4.90
2022-08-11T04:30:34.672Z,7.30
2022-08-11T04:31:51.090Z,9.80
2022-08-11T04:32:34.611Z,4.50
2022-08-11T04:33:34.978Z,5.20
2022-08-11T04:34:34.588Z,4.60
2022-08-11T04:35:34.604Z,8.00
2022-08-11T04:36:34.566Z,7.90
2022-08-11T04:37:34.868Z,6.90
2022-08-11T04:38:34.539Z,5.60
2022-08-11T04:39:34.611Z,9.70
2022-08-11T04:40:34.507Z,9.30
2022-08-11T04:41:34.490Z,6.40
2022-08-11T04:42:34.637Z,7.60
2022-08-11T04:43:34.494Z,9.00
2022-08-11T04:44:34.453Z,4.60
2022-08-11T04:45:34.465Z,8.10
2022-08-11T04:46:34.433Z,9.70
2022-08-11T04:47:34.403Z,3.50
2022-08-11T04:48:34.451Z,8.10
2022-08-11T04:49:34.451Z,5.40
2022-08-11T04:50:34.362Z,11.30
2022-08-11T04:51:34.360Z,5.40
2022-08-11T04:52:37.728Z,6.50
2022-08-11T04:53:34.348Z,7.90
2022-08-11T04:54:34.309Z,6.10
2022-08-11T04:55:36.118Z,6.90
2022-08-11T04:56:34.316Z,8.70
2022-08-11T04:57:34.272Z,7.90
2022-08-11T04:58:34.274Z,5.80
2022-08-11T04:59:34.299Z,5.40
2022-08-11T05:00:34.228Z,9.60
2022-08-11T05:01:37.355Z,5.20
2022-08-11T05:02:34.228Z,6.90
2022-08-11T05:03:34.218Z,4.10
2022-08-11T05:04:34.179Z,6.30
2022-08-11T05:05:34.179Z,12.00
2022-08-11T05:06:34.152Z,6.60
2022-08-11T05:07:34.165Z,6.10
2022-08-11T05:08:34.120Z,6.80
2022-08-11T05:09:34.158Z,6.30
2022-08-11T05:10:34.124Z,11.30
2022-08-11T05:11:34.118Z,4.90
2022-08-11T05:12:34.184Z,5.90
2022-08-11T05:13:34.067Z,5.30
2022-08-11T05:14:34.041Z,8.40
2022-08-11T05:15:42.732Z,10.60
2022-08-11T05:16:34.050Z,9.40
2022-08-11T05:17:34.034Z,8.20
2022-08-11T05:18:34.005Z,11.30
2022-08-11T05:19:33.996Z,6.50
2022-08-11T05:20:33.957Z,5.00
2022-08-11T05:21:33.952Z,8.10
2022-08-11T05:22:33.959Z,10.40
2022-08-11T05:23:33.942Z,10.30
2022-08-11T05:24:33.910Z,16.00
2022-08-11T05:26:09.340Z,6.30
2022-08-11T05:26:52.735Z,7.70
2022-08-11T05:27:33.927Z,5.80
2022-08-11T05:28:33.876Z,7.80
2022-08-11T05:29:33.870Z,9.40
2022-08-11T05:30:34.510Z,7.70
2022-08-11T05:31:33.842Z,8.90
2022-08-11T05:32:33.810Z,5.20
2022-08-11T05:33:33.827Z,5.40
2022-08-11T05:34:33.809Z,6.60
2022-08-11T05:36:02.316Z,6.60
2022-08-11T05:36:33.782Z,4.30
2022-08-11T05:37:33.765Z,4.70
2022-08-11T05:38:33.745Z,9.50
2022-08-11T05:39:36.794Z,7.70
2022-08-11T05:40:33.737Z,4.20
2022-08-11T05:41:33.716Z,7.80
2022-08-11T05:42:33.680Z,6.90
2022-08-11T05:43:33.690Z,11.70
2022-08-11T05:44:33.675Z,8.20
2022-08-11T05:46:02.846Z,9.80
2022-08-11T05:46:33.636Z,7.80
2022-08-11T05:47:33.634Z,12.50
2022-08-11T05:48:33.602Z,5.70
2022-08-11T05:49:33.629Z,7.30
2022-08-11T05:50:33.597Z,10.30
2022-08-11T05:51:33.576Z,4.30
2022-08-11T05:52:33.568Z,8.40
2022-08-11T05:53:36.001Z,8.60
2022-08-11T05:54:33.586Z,8.30
2022-08-11T05:55:33.568Z,5.70
2022-08-11T05:56:33.515Z,10.90
2022-08-11T05:57:48.714Z,7.90
2022-08-11T05:58:36.839Z,4.70
2022-08-11T05:59:33.487Z,9.20
2022-08-11T06:00:33.533Z,6.70
2022-08-11T06:01:33.514Z,4.30
2022-08-11T06:02:33.441Z,11.80
2022-08-11T06:03:33.447Z,9.10
2022-08-11T06:04:33.440Z,8.40
2022-08-11T06:05:38.496Z,6.00
2022-08-11T06:06:33.406Z,8.60
2022-08-11T06:07:48.606Z,7.20
2022-08-11T06:08:33.408Z,5.30
2022-08-11T06:09:33.370Z,9.40
2022-08-11T06:10:33.429Z,8.20
2022-08-11T06:11:43.705Z,5.00
2022-08-11T06:12:33.377Z,4.90
2022-08-11T06:13:33.285Z,6.40
2022-08-11T06:14:33.277Z,5.70
2022-08-11T06:15:33.287Z,6.90
2022-08-11T06:16:33.265Z,9.90
2022-08-11T06:17:38.623Z,7.00
2022-08-11T06:18:33.222Z,11.80
2022-08-11T06:19:33.231Z,8.40
2022-08-11T06:20:33.185Z,8.10
2022-08-11T06:21:33.193Z,9.70
2022-08-11T06:22:33.249Z,12.50
2022-08-11T06:23:33.545Z,10.70
2022-08-11T06:24:33.265Z,9.40
2022-08-11T06:25:33.434Z,8.20
2022-08-11T06:26:40.799Z,11.70
2022-08-11T06:27:33.109Z,12.30
2022-08-11T06:28:33.083Z,6.30
2022-08-11T06:29:41.023Z,7.20
2022-08-11T06:30:33.090Z,7.40
2022-08-11T06:31:33.049Z,10.70
2022-08-11T06:32:33.095Z,11.10
2022-08-11T06:33:33.060Z,6.70
2022-08-11T06:34:32.988Z,5.80
2022-08-11T06:35:32.997Z,10.70
2022-08-11T06:36:32.972Z,9.30
2022-08-11T06:37:36.399Z,9.60
2022-08-11T06:38:32.959Z,9.00
2022-08-11T06:39:33.032Z,10.40
2022-08-11T06:40:32.949Z,6.80
2022-08-11T06:41:32.938Z,8.30
2022-08-11T06:42:32.925Z,13.70
2022-08-11T06:43:32.908Z,7.70
2022-08-11T06:44:32.877Z,13.00
2022-08-11T06:45:32.865Z,11.70
2022-08-11T06:46:32.855Z,9.00
2022-08-11T06:47:32.869Z,5.50
2022-08-11T06:48:32.802Z,9.70
2022-08-11T06:49:32.876Z,8.80
2022-08-11T06:50:32.785Z,8.20
2022-08-11T06:51:32.816Z,4.80
2022-08-11T06:52:35.919Z,8.00
2022-08-11T06:53:32.751Z,8.00
2022-08-11T06:54:32.727Z,4.70
2022-08-11T06:55:57.673Z,8.20
2022-08-11T06:56:32.765Z,10.40
2022-08-11T06:57:32.691Z,8.70
2022-08-11T06:58:32.695Z,7.30
2022-08-11T06:59:32.692Z,9.40
2022-08-11T07:00:33.101Z,6.90
2022-08-11T07:01:32.721Z,10.80
2022-08-11T07:02:32.748Z,15.70
2022-08-11T07:03:32.609Z,8.40
2022-08-11T07:04:32.648Z,13.90
2022-08-11T07:05:32.601Z,13.30
2022-08-11T07:06:41.615Z,11.60
2022-08-11T07:07:32.588Z,19.50
2022-08-11T07:08:34.694Z,12.10
2022-08-11T07:09:32.559Z,9.40
2022-08-11T07:10:32.549Z,11.50
2022-08-11T07:11:32.569Z,11.20
2022-08-11T07:12:32.585Z,15.10
2022-08-11T07:13:44.559Z,14.60
2022-08-11T07:14:37.773Z,14.70
2022-08-11T07:16:09.088Z,7.90
2022-08-11T07:16:32.530Z,11.60
2022-08-11T07:17:32.458Z,11.50
2022-08-11T07:18:32.412Z,10.20
2022-08-11T07:19:32.454Z,15.90
2022-08-11T07:20:32.388Z,17.80
2022-08-11T07:22:01.794Z,13.40
2022-08-11T07:22:32.375Z,15.20
2022-08-11T07:23:32.362Z,10.30
2022-08-11T07:24:34.511Z,15.20
2022-08-11T07:25:32.409Z,21.10
2022-08-11T07:26:32.300Z,12.90
2022-08-11T07:27:35.525Z,18.80
2022-08-11T07:28:32.348Z,14.40
2022-08-11T07:29:32.269Z,14.70
2022-08-11T07:30:32.250Z,12.40
2022-08-11T07:31:32.261Z,12.10
2022-08-11T07:32:32.239Z,14.50
2022-08-11T07:34:06.982Z,26.30
2022-08-11T07:34:32.238Z,15.50
2022-08-11T07:35:32.195Z,10.50
2022-08-11T07:36:32.169Z,17.50
2022-08-11T07:37:32.161Z,12.10
2022-08-11T07:38:32.184Z,6.10
2022-08-11T07:39:32.254Z,15.40
2022-08-11T07:40:32.148Z,9.80
2022-08-11T07:41:32.114Z,5.80
2022-08-11T07:42:32.092Z,5.70
2022-08-11T07:43:32.087Z,8.50
2022-08-11T07:44:35.128Z,6.00
2022-08-11T07:45:32.076Z,7.50
2022-08-11T07:46:32.123Z,4.80
2022-08-11T07:47:32.046Z,5.70
2022-08-11T07:48:32.037Z,4.50
2022-08-11T07:49:32.059Z,8.20
2022-08-11T07:50:32.036Z,3.70
2022-08-11T07:51:32.059Z,5.00
2022-08-11T07:52:31.964Z,3.90
2022-08-11T07:53:31.971Z,6.70
2022-08-11T07:54:33.406Z,6.30
2022-08-11T07:55:48.996Z,5.30
2022-08-11T07:56:45.588Z,6.90
2022-08-11T07:57:59.430Z,5.10
2022-08-11T07:58:34.743Z,7.00
2022-08-11T08:00:00.131Z,6.80
2022-08-11T08:00:31.899Z,5.70
2022-08-11T08:01:31.922Z,4.50
2022-08-11T08:02:31.829Z,4.50
2022-08-11T08:03:31.864Z,4.50
2022-08-11T08:04:31.820Z,6.30
2022-08-11T08:05:31.797Z,6.40
2022-08-11T08:06:36.574Z,4.30
2022-08-11T08:07:31.800Z,3.40
2022-08-11T08:08:31.767Z,5.70
2022-08-11T08:09:31.765Z,9.00
2022-08-11T08:10:31.744Z,6.10
2022-08-11T08:11:31.755Z,4.50
2022-08-11T08:12:31.737Z,4.60
2022-08-11T08:13:31.699Z,6.40
2022-08-11T08:14:31.691Z,3.50
2022-08-11T08:15:31.738Z,6.10
2022-08-11T08:16:31.658Z,3.50
2022-08-11T08:17:31.651Z,7.10
2022-08-11T08:18:31.637Z,4.90
2022-08-11T08:19:31.618Z,4.10
2022-08-11T08:20:31.638Z,3.00
2022-08-11T08:21:31.590Z,4.00
2022-08-11T08:22:37.938Z,7.70
2022-08-11T08:23:31.578Z,12.10
2022-08-11T08:24:31.549Z,16.60
2022-08-11T08:25:31.550Z,12.40
2022-08-11T08:26:31.537Z,7.60
2022-08-11T08:27:31.517Z,8.50
2022-08-11T08:28:32.684Z,9.40
2022-08-11T08:29:31.517Z,5.90
2022-08-11T08:30:31.486Z,7.00
2022-08-11T08:31:31.460Z,6.80
2022-08-11T08:32:31.515Z,3.20
2022-08-11T08:33:31.471Z,11.30
2022-08-11T08:34:32.409Z,5.00
2022-08-11T08:35:33.047Z,8.70
2022-08-11T08:36:31.410Z,10.30
2022-08-11T08:37:45.003Z,11.00
2022-08-11T08:38:31.401Z,9.70
2022-08-11T08:39:31.373Z,11.20
2022-08-11T08:40:31.360Z,9.20
2022-08-11T08:41:31.330Z,7.00
2022-08-11T08:42:31.368Z,4.90
2022-08-11T08:43:32.516Z,7.70
2022-08-11T08:44:41.147Z,5.40
2022-08-11T08:45:31.284Z,5.70
2022-08-11T08:46:31.306Z,6.00
2022-08-11T08:47:42.333Z,9.00
2022-08-11T08:48:31.290Z,7.50
2022-08-11T08:49:31.259Z,6.10
2022-08-11T08:50:31.254Z,7.60
2022-08-11T08:52:01.492Z,4.70
2022-08-11T08:52:35.918Z,8.00
2022-08-11T08:53:31.217Z,9.30
2022-08-11T08:54:31.178Z,9.20
2022-08-11T08:55:31.183Z,5.80
2022-08-11T08:56:31.178Z,5.30
2022-08-11T08:57:31.160Z,3.70
2022-08-11T08:58:31.164Z,3.20
2022-08-11T08:59:47.891Z,9.90
2022-08-11T09:00:31.115Z,5.60
2022-08-11T09:01:31.260Z,2.90
2022-08-11T09:02:34.358Z,2.70
2022-08-11T09:04:05.053Z,6.00
2022-08-11T09:04:31.086Z,5.40
2022-08-11T09:05:31.072Z,5.90
2022-08-11T09:06:31.577Z,8.20
2022-08-11T09:07:38.742Z,2.10
2022-08-11T09:08:31.025Z,2.90
2022-08-11T09:09:31.044Z,4.40
2022-08-11T09:10:31.028Z,6.00
2022-08-11T09:11:30.979Z,2.10
2022-08-11T09:12:36.419Z,3.80
2022-08-11T09:13:30.965Z,3.90
2022-08-11T09:14:30.973Z,4.70
2022-08-11T09:15:30.942Z,4.10
2022-08-11T09:16:31.022Z,5.10
2022-08-11T09:17:30.908Z,4.80
2022-08-11T09:18:33.742Z,5.00
2022-08-11T09:19:30.920Z,6.80
2022-08-11T09:20:30.902Z,2.00
2022-08-11T09:21:46.338Z,2.20
2022-08-11T09:22:30.863Z,4.30
2022-08-11T09:24:30.865Z,3.80
2022-08-11T09:25:30.856Z,3.50
2022-08-11T09:26:31.276Z,3.70
2022-08-11T09:27:30.800Z,6.40
2022-08-11T09:28:30.820Z,3.50
2022-08-11T09:29:30.797Z,5.80
2022-08-11T09:30:30.768Z,8.50
2022-08-11T09:31:33.480Z,7.10
2022-08-11T09:32:30.762Z,7.60
2022-08-11T09:33:30.756Z,3.70
2022-08-11T09:34:30.739Z,2.70
2022-08-11T09:35:30.713Z,3.40
2022-08-11T09:36:30.716Z,4.20
2022-08-11T09:37:54.971Z,3.60
2022-08-11T09:38:30.685Z,3.80
2022-08-11T09:39:31.234Z,3.40
2022-08-11T09:40:30.717Z,2.70
2022-08-11T09:42:01.300Z,4.40
2022-08-11T09:42:30.667Z,2.90
2022-08-11T09:43:30.620Z,7.00
2022-08-11T09:44:30.617Z,5.00
2022-08-11T09:45:40.118Z,3.70
2022-08-11T09:46:30.619Z,4.70
2022-08-11T09:47:30.636Z,8.70
2022-08-11T09:48:30.620Z,4.70
2022-08-11T09:49:30.569Z,2.80
2022-08-11T09:50:30.546Z,4.30
2022-08-11T09:51:30.530Z,3.50
2022-08-11T09:52:30.532Z,5.00
2022-08-11T09:53:36.680Z,3.30
2022-08-11T09:54:30.533Z,4.70
2022-08-11T09:55:30.509Z,2.80
2022-08-11T09:56:30.491Z,6.40
2022-08-11T09:57:30.469Z,7.40
2022-08-11T09:58:41.555Z,7.40
2022-08-11T09:59:30.475Z,3.00
2022-08-11T10:00:30.454Z,1.90
2022-08-11T10:01:30.494Z,5.40
2022-08-11T10:02:30.418Z,4.20
2022-08-11T10:03:30.391Z,5.40
2022-08-11T10:04:30.401Z,5.80
2022-08-11T10:05:30.399Z,5.30
2022-08-11T10:06:34.499Z,4.40
2022-08-11T10:07:30.348Z,1.50
2022-08-11T10:08:30.368Z,7.20
2022-08-11T10:09:30.354Z,3.40
2022-08-11T10:10:30.317Z,3.90
2022-08-11T10:11:30.327Z,5.20
2022-08-11T10:12:30.304Z,5.10
2022-08-11T10:14:31.006Z,2.30
2022-08-11T10:14:43.997Z,4.00
2022-08-11T10:15:30.370Z,2.80
2022-08-11T10:16:30.259Z,6.70
2022-08-11T10:17:30.259Z,5.40
2022-08-11T10:18:30.235Z,6.80
2022-08-11T10:19:30.211Z,3.30
2022-08-11T10:20:30.215Z,2.10
2022-08-11T10:21:30.204Z,4.70
2022-08-11T10:22:30.215Z,4.50
2022-08-11T10:23:30.174Z,2.70
2022-08-11T10:24:30.202Z,4.70
2022-08-11T10:25:30.157Z,5.40
2022-08-11T10:26:31.972Z,3.80
2022-08-11T10:28:16.714Z,2.40
2022-08-11T10:28:44.728Z,5.60
2022-08-11T10:29:36.749Z,8.00
2022-08-11T10:30:30.103Z,2.80
2022-08-11T10:31:39.549Z,2.20
2022-08-11T10:32:31.499Z,2.30
2022-08-11T10:33:36.921Z,8.70
2022-08-11T10:34:30.036Z,3.40
2022-08-11T10:35:30.013Z,3.40
2022-08-11T10:36:30.015Z,5.60
2022-08-11T10:38:08.911Z,8.40
2022-08-11T10:38:30.003Z,2.00
2022-08-11T10:39:30.069Z,3.20
2022-08-11T10:40:29.974Z,3.10
2022-08-11T10:41:29.985Z,2.60
2022-08-11T10:42:47.713Z,1.80
2022-08-11T10:44:02.087Z,3.60
2022-08-11T10:44:29.946Z,2.30
2022-08-11T10:45:29.902Z,3.90
2022-08-11T10:46:30.726Z,3.60
2022-08-11T10:47:29.928Z,5.40
2022-08-11T10:48:29.879Z,3.60
2022-08-11T10:49:29.865Z,2.70
2022-08-11T10:50:29.958Z,1.80
2022-08-11T10:51:52.181Z,4.10
2022-08-11T10:52:29.895Z,7.70
2022-08-11T10:53:29.832Z,3.90
2022-08-11T10:54:29.814Z,3.20
2022-08-11T10:55:29.799Z,4.00
2022-08-11T10:56:29.830Z,3.90
2022-08-11T10:57:29.815Z,2.40
2022-08-11T10:58:29.799Z,5.20
2022-08-11T10:59:29.764Z,3.90
2022-08-11T11:00:29.778Z,4.40
2022-08-11T11:01:29.803Z,2.40
2022-08-11T11:02:29.793Z,2.60
2022-08-11T11:03:29.731Z,1.50
2022-08-11T11:04:29.738Z,1.40
2022-08-11T11:05:29.710Z,5.30
2022-08-11T11:06:30.645Z,1.80
2022-08-11T11:07:29.790Z,7.60
2022-08-11T11:08:29.708Z,4.30
2022-08-11T11:09:29.662Z,3.30
2022-08-11T11:10:29.669Z,4.50
2022-08-11T11:11:29.676Z,4.20
2022-08-11T11:12:29.799Z,4.00
2022-08-11T11:13:29.612Z,4.70
2022-08-11T11:14:29.635Z,4.30
2022-08-11T11:15:29.612Z,4.30
2022-08-11T11:16:29.636Z,2.20
2022-08-11T11:17:29.578Z,2.90
2022-08-11T11:18:29.559Z,3.40
2022-08-11T11:19:29.557Z,3.30
2022-08-11T11:20:37.038Z,2.10
2022-08-11T11:21:29.553Z,5.20
2022-08-11T11:22:29.553Z,2.30
2022-08-11T11:23:29.524Z,1.30
2022-08-11T11:24:29.516Z,2.90
2022-08-11T11:25:29.505Z,3.00
2022-08-11T11:26:29.470Z,5.30
2022-08-11T11:27:29.465Z,4.70
2022-08-11T11:28:29.510Z,3.10
2022-08-11T11:29:29.434Z,2.90
2022-08-11T11:30:29.439Z,2.90
2022-08-11T11:31:29.453Z,3.60
2022-08-11T11:32:29.446Z,5.70
2022-08-11T11:33:29.390Z,3.10
2022-08-11T11:34:29.402Z,3.10
2022-08-11T11:35:29.391Z,1.50
2022-08-11T11:36:29.391Z,3.40
2022-08-11T11:37:29.371Z,4.30
2022-08-11T11:38:29.409Z,3.00
2022-08-11T11:39:29.456Z,2.70
2022-08-11T11:40:31.735Z,5.30
2022-08-11T11:41:29.325Z,1.70
2022-08-11T11:42:29.372Z,1.60
2022-08-11T11:43:29.301Z,3.50
2022-08-11T11:44:29.295Z,1.30
2022-08-11T11:45:29.266Z,1.80
2022-08-11T11:46:30.315Z,2.40
2022-08-11T11:47:29.308Z,3.20
2022-08-11T11:48:29.290Z,2.60
2022-08-11T11:49:29.273Z,11.20
2022-08-11T11:50:31.671Z,9.90
2022-08-11T11:51:29.216Z,8.00
2022-08-11T11:52:29.269Z,5.00
2022-08-11T11:53:29.234Z,3.70
2022-08-11T11:54:29.217Z,4.00
2022-08-11T11:55:29.183Z,2.40
2022-08-11T11:56:29.161Z,1.70
2022-08-11T11:57:29.163Z,6.40
2022-08-11T11:58:29.161Z,5.70
2022-08-11T11:59:29.205Z,11.10
2022-08-11T12:00:33.241Z,3.80
2022-08-11T12:01:29.117Z,2.00
2022-08-11T12:02:29.125Z,7.50
2022-08-11T12:03:29.119Z,2.70
2022-08-11T12:04:29.179Z,12.10
2022-08-11T12:05:29.067Z,1.90
2022-08-11T12:06:29.068Z,3.70
2022-08-11T12:07:29.087Z,3.50
2022-08-11T12:08:29.020Z,2.50
2022-08-11T12:09:29.079Z,6.60
2022-08-11T12:10:29.047Z,2.70
2022-08-11T12:11:29.000Z,5.20
2022-08-11T12:12:28.998Z,8.70
2022-08-11T12:13:29.002Z,5.70
2022-08-11T12:14:29.018Z,4.50
2022-08-11T12:16:03.618Z,7.20
2022-08-11T12:16:37.222Z,3.30
2022-08-11T12:17:28.939Z,3.00
2022-08-11T12:18:28.953Z,2.30
2022-08-11T12:19:28.965Z,8.90
2022-08-11T12:20:33.535Z,5.00
2022-08-11T12:21:28.913Z,3.60
2022-08-11T12:22:28.924Z,5.60
2022-08-11T12:23:28.882Z,3.00
2022-08-11T12:24:29.504Z,5.90
2022-08-11T12:25:28.871Z,2.80
2022-08-11T12:26:28.887Z,3.70
2022-08-11T12:27:28.916Z,3.90
2022-08-11T12:28:29.093Z,1.70
2022-08-11T12:29:28.853Z,3.00
2022-08-11T12:30:28.827Z,1.80
2022-08-11T12:31:28.974Z,2.40
2022-08-11T12:32:28.872Z,3.10
2022-08-11T12:33:28.754Z,3.70
2022-08-11T12:34:28.751Z,1.40
2022-08-11T12:35:28.751Z,11.80
2022-08-11T12:36:28.733Z,4.30
2022-08-11T12:37:28.782Z,4.10
2022-08-11T12:38:29.808Z,2.00
2022-08-11T12:40:16.939Z,4.80
2022-08-11T12:41:28.770Z,4.60
2022-08-11T12:42:28.713Z,3.80
2022-08-11T12:43:38.312Z,3.50
2022-08-11T12:44:28.706Z,1.90
2022-08-11T12:45:28.736Z,2.50
2022-08-11T12:46:28.638Z,3.00
2022-08-11T12:47:28.637Z,3.00
2022-08-11T12:48:59.536Z,3.60
2022-08-11T12:49:28.629Z,2.30
2022-08-11T12:50:28.630Z,3.30
2022-08-11T12:51:28.609Z,3.80
2022-08-11T12:52:28.600Z,1.60
2022-08-11T12:53:28.631Z,2.60
2022-08-11T12:54:28.666Z,5.60
2022-08-11T12:55:28.608Z,3.00
2022-08-11T12:56:28.945Z,1.20
2022-08-11T12:57:36.588Z,4.90
2022-08-11T12:58:28.574Z,4.40
2022-08-11T12:59:28.532Z,1.60
2022-08-11T13:00:28.525Z,3.20
2022-08-11T13:01:28.543Z,2.70
2022-08-11T13:02:28.507Z,5.00
2022-08-11T13:03:28.544Z,5.50
2022-08-11T13:04:28.471Z,3.30
2022-08-11T13:05:28.530Z,3.50
2022-08-11T13:06:28.470Z,3.50
2022-08-11T13:07:28.474Z,2.00
2022-08-11T13:08:28.473Z,4.60
2022-08-11T13:09:28.456Z,6.00
2022-08-11T13:10:28.484Z,2.40
2022-08-11T13:11:56.154Z,5.00
2022-08-11T13:12:28.481Z,3.00
2022-08-11T13:13:52.673Z,4.10
2022-08-11T13:14:28.353Z,4.50
2022-08-11T13:15:28.388Z,7.70
2022-08-11T13:16:28.327Z,4.10
2022-08-11T13:17:40.240Z,2.20